createdAt,value
2023-05-09T00:02:11.319Z,28.27
2023-05-09T00:05:16.933Z,28.85
2023-05-09T00:08:22.776Z,28.35
2023-05-09T00:11:28.640Z,24.08
2023-05-09T00:14:36.441Z,30.20
2023-05-09T00:17:42.088Z,25.95
2023-05-09T00:20:47.380Z,21.88
2023-05-09T00:23:52.830Z,29.70
2023-05-09T00:26:58.123Z,32.38
2023-05-09T00:30:06.438Z,25.88
2023-05-09T00:33:12.016Z,23.95
2023-05-09T00:36:17.502Z,28.40
2023-05-09T00:39:22.745Z,25.38
2023-05-09T00:42:28.389Z,31.08
2023-05-09T00:45:36.935Z,25.25
2023-05-09T00:48:42.566Z,30.15
2023-05-09T00:51:48.247Z,24.83
2023-05-09T00:54:54.397Z,30.58
2023-05-09T00:58:00.240Z,26.80
2023-05-09T01:01:08.665Z,29.10
2023-05-09T01:04:14.645Z,26.80
2023-05-09T01:07:22.546Z,29.58
2023-05-09T01:10:31.171Z,24.23
2023-05-09T01:13:40.318Z,27.33
2023-05-09T01:16:52.550Z,30.40
2023-05-09T01:20:02.631Z,31.55
2023-05-09T01:23:15.577Z,24.15
2023-05-09T01:26:24.282Z,28.98
2023-05-09T01:32:39.759Z,25.45
2023-05-09T01:35:46.431Z,29.90
2023-05-09T01:38:53.565Z,26.10
2023-05-09T01:41:59.998Z,31.67
2023-05-09T01:45:06.348Z,26.73
2023-05-09T01:48:15.223Z,32.00
2023-05-09T01:51:22.626Z,29.23
2023-05-09T01:54:28.860Z,32.22
2023-05-09T01:57:34.385Z,28.45
2023-05-09T02:00:40.071Z,24.67
2023-05-09T02:03:48.679Z,26.25
2023-05-09T02:06:54.463Z,26.95
2023-05-09T02:10:01.651Z,29.65
2023-05-09T02:13:10.358Z,25.17
2023-05-09T02:16:16.770Z,28.42
2023-05-09T02:19:24.816Z,26.25
2023-05-09T02:22:30.647Z,26.20
2023-05-09T02:25:36.924Z,26.55
2023-05-09T02:28:45.536Z,27.63
2023-05-09T02:31:51.688Z,28.55
2023-05-09T02:35:00.936Z,29.92
2023-05-09T02:38:07.458Z,26.48
2023-05-09T02:41:15.960Z,25.20
2023-05-09T02:44:21.710Z,27.05
2023-05-09T02:47:27.425Z,28.17
2023-05-09T02:50:35.327Z,30.30
2023-05-09T02:53:40.547Z,28.27
2023-05-09T02:56:46.526Z,28.35
2023-05-09T02:59:51.681Z,30.60
2023-05-09T03:02:57.191Z,29.38
2023-05-09T03:06:05.318Z,31.88
2023-05-09T03:09:10.536Z,32.63
2023-05-09T03:12:15.820Z,27.05
2023-05-09T03:15:21.520Z,27.98
2023-05-09T03:18:27.478Z,37.28
2023-05-09T03:21:35.909Z,28.17
2023-05-09T03:24:41.431Z,30.98
2023-05-09T03:27:47.025Z,33.47
2023-05-09T03:30:54.026Z,29.63
2023-05-09T03:34:02.992Z,35.63
2023-05-09T03:37:11.268Z,30.85
2023-05-09T03:40:19.111Z,37.30
2023-05-09T03:43:30.514Z,31.27
2023-05-09T03:46:36.318Z,29.52
2023-05-09T03:49:42.098Z,30.00
2023-05-09T03:52:52.798Z,35.35
2023-05-09T03:55:59.158Z,28.48
2023-05-09T03:59:05.454Z,31.80
2023-05-09T04:02:11.960Z,38.47
2023-05-09T04:05:17.945Z,30.02
2023-05-09T04:08:26.634Z,32.05
2023-05-09T04:11:32.195Z,31.23
2023-05-09T04:14:38.735Z,30.70
2023-05-09T04:17:44.346Z,27.70
2023-05-09T04:20:49.767Z,32.20
2023-05-09T04:23:58.788Z,32.88
2023-05-09T04:27:11.736Z,33.78
2023-05-09T04:30:18.241Z,29.33
2023-05-09T04:33:25.420Z,29.75
2023-05-09T04:36:34.190Z,29.67
2023-05-09T04:39:43.422Z,33.33
2023-05-09T04:42:57.608Z,32.35
2023-05-09T04:46:06.562Z,30.52
2023-05-09T04:49:13.113Z,33.95
2023-05-09T04:52:20.623Z,35.58
2023-05-09T04:55:28.441Z,23.02
2023-05-09T04:58:35.120Z,26.83
2023-05-09T05:01:40.427Z,25.85
2023-05-09T05:04:46.375Z,24.05
2023-05-09T05:07:53.781Z,21.65
2023-05-09T05:11:05.440Z,27.70
2023-05-09T05:14:11.005Z,23.33
2023-05-09T05:17:18.525Z,19.80
2023-05-09T05:20:25.446Z,19.57
2023-05-09T05:23:30.708Z,24.08
2023-05-09T05:26:38.925Z,31.48
2023-05-09T05:29:44.494Z,24.30
2023-05-09T05:32:50.191Z,22.55
2023-05-09T05:35:58.131Z,14.07
2023-05-09T05:39:03.397Z,21.05
2023-05-09T05:42:11.531Z,19.05
2023-05-09T05:45:17.742Z,14.32
2023-05-09T05:48:27.987Z,11.95
2023-05-09T05:51:34.228Z,13.57
2023-05-09T05:54:41.334Z,16.30
2023-05-09T05:57:50.297Z,15.75
2023-05-09T06:00:55.863Z,9.63
2023-05-09T06:04:01.466Z,5.30
2023-05-09T06:07:09.737Z,7.32
2023-05-09T06:10:16.460Z,4.63
2023-05-09T06:16:36.848Z,3.35
2023-05-09T06:19:42.397Z,3.38
2023-05-09T06:22:48.120Z,4.70
2023-05-09T06:25:53.242Z,2.97
2023-05-09T06:28:59.218Z,2.65
2023-05-09T06:32:07.234Z,2.88
2023-05-09T06:35:13.167Z,6.97
2023-05-09T06:38:18.739Z,11.10
2023-05-09T06:41:24.366Z,9.10
2023-05-09T06:44:30.334Z,3.20
2023-05-09T06:47:38.561Z,4.65
2023-05-09T06:50:44.138Z,3.20
2023-05-09T06:53:49.326Z,3.90
2023-05-09T06:56:54.665Z,3.47
2023-05-09T06:59:59.926Z,2.63
2023-05-09T07:03:08.875Z,2.15
2023-05-09T07:06:14.246Z,3.17
2023-05-09T07:09:21.020Z,1.65
2023-05-09T07:12:26.309Z,2.30
2023-05-09T07:15:41.201Z,4.13
2023-05-09T07:18:50.347Z,6.85
2023-05-09T07:21:56.121Z,6.13
2023-05-09T07:25:01.456Z,2.05
2023-05-09T07:28:09.115Z,5.38
2023-05-09T07:31:14.535Z,4.65
2023-05-09T07:34:23.774Z,3.53
2023-05-09T07:37:29.347Z,4.72
2023-05-09T07:40:36.762Z,9.23
2023-05-09T07:43:42.225Z,6.28
2023-05-09T07:46:48.364Z,5.07
2023-05-09T07:49:56.437Z,13.65
2023-05-09T07:53:02.033Z,4.50
2023-05-09T07:56:08.202Z,5.57
2023-05-09T07:59:13.905Z,8.07
2023-05-09T08:02:19.265Z,4.07
2023-05-09T08:05:27.364Z,4.38
2023-05-09T08:08:32.441Z,2.10
2023-05-09T08:11:38.610Z,2.90
2023-05-09T08:14:44.147Z,3.75
2023-05-09T08:17:49.467Z,3.20
2023-05-09T08:20:59.192Z,3.60
2023-05-09T08:24:06.379Z,2.83
2023-05-09T08:27:13.764Z,2.92
2023-05-09T08:30:19.041Z,4.43
2023-05-09T08:33:24.324Z,6.05
2023-05-09T08:36:32.870Z,4.28
2023-05-09T08:39:38.440Z,4.60
2023-05-09T08:42:44.607Z,5.93
2023-05-09T08:45:50.819Z,3.55
2023-05-09T08:48:57.188Z,3.45
2023-05-09T08:52:05.707Z,3.83
2023-05-09T08:55:11.507Z,3.03
2023-05-09T08:58:17.167Z,3.50
2023-05-09T09:01:23.367Z,2.50
2023-05-09T09:04:29.004Z,2.88
2023-05-09T09:07:37.137Z,3.65
2023-05-09T09:10:47.643Z,4.07
2023-05-09T09:13:54.714Z,2.85
2023-05-09T09:17:00.582Z,3.00
2023-05-09T09:20:08.101Z,2.00
2023-05-09T09:23:21.268Z,3.77
2023-05-09T09:26:29.579Z,4.53
2023-05-09T09:32:41.038Z,4.03
2023-05-09T09:35:46.945Z,1.33
2023-05-09T09:39:01.175Z,4.40
2023-05-09T09:42:16.316Z,2.85
2023-05-09T09:45:22.558Z,2.35
2023-05-09T09:48:28.891Z,2.20
2023-05-09T09:51:56.024Z,3.42
2023-05-09T09:55:03.934Z,7.03
2023-05-09T09:58:19.499Z,1.77
2023-05-09T10:01:25.572Z,4.07
2023-05-09T10:04:32.067Z,2.47
2023-05-09T10:07:39.093Z,2.17
2023-05-09T10:10:47.754Z,3.15
2023-05-09T10:13:53.074Z,7.93
2023-05-09T10:17:00.023Z,2.90
2023-05-09T10:20:06.333Z,4.25
2023-05-09T10:23:12.554Z,3.10
2023-05-09T10:26:22.180Z,4.63
2023-05-09T10:29:28.605Z,2.30
2023-05-09T10:32:35.378Z,4.30
2023-05-09T10:35:49.024Z,3.17
2023-05-09T10:38:55.433Z,3.70
2023-05-09T10:42:04.907Z,2.03
2023-05-09T10:45:12.956Z,4.80
2023-05-09T10:51:25.025Z,2.97
2023-05-09T10:54:33.697Z,1.65
2023-05-09T10:57:42.542Z,3.53
2023-05-09T11:00:47.834Z,1.60
2023-05-09T11:03:57.026Z,3.40
2023-05-09T11:07:03.151Z,4.82
2023-05-09T11:10:12.102Z,2.42
2023-05-09T11:13:21.354Z,3.15
2023-05-09T11:16:29.539Z,2.92
2023-05-09T11:19:41.892Z,4.43
2023-05-09T11:22:48.043Z,2.97
2023-05-09T11:25:53.373Z,3.63
2023-05-09T11:29:03.439Z,2.70
2023-05-09T11:32:09.765Z,5.57
2023-05-09T11:35:17.562Z,5.70
2023-05-09T11:38:26.073Z,2.55
2023-05-09T11:41:31.544Z,6.07
2023-05-09T11:44:39.772Z,2.78
2023-05-09T11:47:45.273Z,2.80
2023-05-09T11:50:51.176Z,5.55
2023-05-09T11:53:57.068Z,3.05
2023-05-09T11:57:03.280Z,3.88
2023-05-09T12:00:12.511Z,3.92
2023-05-09T12:03:18.099Z,6.80
2023-05-09T12:06:23.514Z,3.83
2023-05-09T12:09:29.381Z,3.05
2023-05-09T12:12:36.697Z,2.60
2023-05-09T12:15:44.798Z,3.47
2023-05-09T12:18:50.592Z,3.33
2023-05-09T12:22:00.470Z,3.88
2023-05-09T12:25:08.384Z,2.50
2023-05-09T12:28:14.203Z,2.50
2023-05-09T12:31:22.432Z,4.68
2023-05-09T12:34:31.407Z,2.53
2023-05-09T12:37:36.747Z,2.97
2023-05-09T12:40:42.377Z,3.20
2023-05-09T12:43:51.131Z,3.03
2023-05-09T12:46:59.956Z,2.22
2023-05-09T12:50:06.023Z,3.08
2023-05-09T12:53:12.032Z,4.15
2023-05-09T12:56:18.332Z,3.17
2023-05-09T12:59:24.321Z,3.33
2023-05-09T13:02:37.172Z,2.95
2023-05-09T13:05:42.917Z,3.35
2023-05-09T13:09:00.274Z,2.50
2023-05-09T13:12:06.182Z,3.40
2023-05-09T13:15:13.396Z,5.15
2023-05-09T13:18:21.778Z,4.10
2023-05-09T13:21:27.191Z,2.83
2023-05-09T13:24:33.036Z,4.78
2023-05-09T13:27:38.246Z,3.90
2023-05-09T13:30:43.995Z,4.28
2023-05-09T13:33:58.354Z,3.58
2023-05-09T13:37:04.374Z,2.75
2023-05-09T13:40:10.496Z,3.78
2023-05-09T13:43:15.881Z,2.83
2023-05-09T13:46:21.697Z,3.67
2023-05-09T13:49:29.975Z,5.32
2023-05-09T13:52:35.480Z,3.28
2023-05-09T13:55:40.871Z,4.47
2023-05-09T13:58:46.577Z,2.85
2023-05-09T14:01:52.189Z,5.40
2023-05-09T14:05:00.307Z,5.53
2023-05-09T14:08:05.529Z,3.45
2023-05-09T14:11:11.369Z,4.47
2023-05-09T14:14:16.525Z,3.92
2023-05-09T14:17:21.914Z,3.53
2023-05-09T14:20:30.051Z,3.30
2023-05-09T14:23:36.011Z,5.57
2023-05-09T14:26:41.804Z,5.43
2023-05-09T14:29:47.103Z,3.20
2023-05-09T14:32:52.400Z,3.63
2023-05-09T14:36:03.317Z,2.70
2023-05-09T14:39:08.646Z,4.47
2023-05-09T14:42:14.760Z,3.95
2023-05-09T14:45:20.706Z,3.55
2023-05-09T14:48:26.186Z,5.85
2023-05-09T14:51:34.812Z,4.28
2023-05-09T14:54:40.103Z,3.55
2023-05-09T14:57:45.937Z,4.25
2023-05-09T15:00:53.265Z,3.78
2023-05-09T15:03:58.911Z,4.20
2023-05-09T15:07:07.053Z,4.00
2023-05-09T15:10:13.167Z,3.33
2023-05-09T15:13:18.822Z,3.17
2023-05-09T15:16:24.541Z,6.13
2023-05-09T15:19:31.859Z,4.55
2023-05-09T15:22:39.954Z,2.45
2023-05-09T15:25:45.662Z,3.70
2023-05-09T15:28:50.966Z,5.95
2023-05-09T15:31:57.308Z,5.65
2023-05-09T15:35:02.707Z,4.80
2023-05-09T15:38:12.506Z,3.38
2023-05-09T15:41:18.941Z,4.82
2023-05-09T15:44:24.198Z,3.08
2023-05-09T15:47:29.813Z,3.25
2023-05-09T15:50:35.578Z,4.13
2023-05-09T15:53:43.683Z,5.13
2023-05-09T15:56:49.050Z,3.15
2023-05-09T15:59:55.746Z,2.75
2023-05-09T16:03:01.521Z,4.25
2023-05-09T16:06:07.252Z,2.85
2023-05-09T16:09:15.715Z,6.25
2023-05-09T16:12:21.256Z,4.88
2023-05-09T16:15:26.824Z,4.40
2023-05-09T16:18:32.402Z,7.45
2023-05-09T16:21:39.668Z,7.47
2023-05-09T16:24:49.362Z,4.90
2023-05-09T16:27:55.008Z,6.38
2023-05-09T16:31:00.740Z,6.57
2023-05-09T16:34:05.996Z,5.82
2023-05-09T16:37:11.654Z,10.57
2023-05-09T16:40:19.868Z,7.70
2023-05-09T16:43:26.371Z,8.52
2023-05-09T16:46:32.235Z,7.30
2023-05-09T16:49:37.935Z,5.90
2023-05-09T16:52:43.525Z,11.68
2023-05-09T16:55:54.172Z,8.25
2023-05-09T16:58:59.438Z,7.50
2023-05-09T17:02:04.971Z,7.43
2023-05-09T17:05:10.697Z,8.43
2023-05-09T17:08:15.961Z,11.05
2023-05-09T17:11:23.737Z,8.43
2023-05-09T17:14:29.060Z,8.18
2023-05-09T17:17:34.556Z,15.00
2023-05-09T17:20:39.928Z,10.93
2023-05-09T17:23:45.664Z,6.65
2023-05-09T17:26:53.657Z,8.77
2023-05-09T17:29:58.977Z,9.43
2023-05-09T17:33:04.139Z,8.10
2023-05-09T17:36:10.176Z,9.55
2023-05-09T17:39:15.647Z,10.38
2023-05-09T17:42:23.679Z,9.18
2023-05-09T17:45:29.005Z,10.00
2023-05-09T17:48:34.544Z,10.80
2023-05-09T17:51:40.093Z,17.65
2023-05-09T17:54:45.867Z,12.02
2023-05-09T17:57:54.056Z,13.75
2023-05-09T18:01:00.044Z,15.68
2023-05-09T18:04:05.623Z,12.82
2023-05-09T18:07:11.381Z,10.82
2023-05-09T18:10:16.920Z,13.27
2023-05-09T18:13:25.397Z,8.98
2023-05-09T18:16:30.851Z,16.05
2023-05-09T18:19:36.367Z,12.55
2023-05-09T18:22:42.202Z,11.48
2023-05-09T18:25:48.663Z,15.02
2023-05-09T18:28:56.832Z,12.35
2023-05-09T18:32:02.375Z,16.90
2023-05-09T18:35:08.600Z,16.83
2023-05-09T18:38:14.383Z,20.65
2023-05-09T18:41:20.034Z,16.70
2023-05-09T18:44:27.721Z,18.27
2023-05-09T18:47:33.770Z,15.90
2023-05-09T18:50:39.451Z,18.83
2023-05-09T18:53:45.216Z,19.63
2023-05-09T18:56:50.699Z,13.65
2023-05-09T18:59:58.931Z,15.30
2023-05-09T19:03:04.141Z,20.15
2023-05-09T19:06:11.158Z,17.17
2023-05-09T19:09:16.868Z,19.92
2023-05-09T19:12:22.356Z,13.70
2023-05-09T19:15:30.501Z,20.48
2023-05-09T19:18:35.813Z,20.70
2023-05-09T19:21:41.301Z,17.55
2023-05-09T19:24:46.709Z,14.27
2023-05-09T19:27:52.942Z,25.88
2023-05-09T19:31:01.304Z,17.90
2023-05-09T19:34:06.678Z,23.63
2023-05-09T19:37:12.150Z,25.27
2023-05-09T19:40:17.936Z,21.25
2023-05-09T19:43:23.368Z,24.17
2023-05-09T19:46:31.383Z,20.05
2023-05-09T19:49:37.012Z,15.95
2023-05-09T19:52:42.926Z,21.02
2023-05-09T19:55:49.311Z,21.50
2023-05-09T19:58:55.216Z,21.05
2023-05-09T20:02:03.496Z,17.92
2023-05-09T20:05:09.258Z,17.75
2023-05-09T20:08:14.787Z,22.85
2023-05-09T20:11:21.292Z,23.60
2023-05-09T20:14:26.948Z,12.32
2023-05-09T20:17:35.028Z,16.33
2023-05-09T20:20:40.758Z,11.88
2023-05-09T20:23:46.382Z,20.73
2023-05-09T20:26:52.100Z,20.02
2023-05-09T20:29:57.562Z,17.63
2023-05-09T20:33:06.008Z,19.40
2023-05-09T20:36:11.526Z,12.95
2023-05-09T20:39:18.071Z,15.50
2023-05-09T20:42:23.568Z,17.00
2023-05-09T20:45:29.179Z,21.48
2023-05-09T20:48:37.809Z,22.25
2023-05-09T20:51:43.397Z,25.02
2023-05-09T20:54:49.510Z,19.65
2023-05-09T20:57:54.887Z,22.20
2023-05-09T21:01:00.576Z,16.90
2023-05-09T21:04:08.863Z,18.17
2023-05-09T21:07:14.634Z,21.77
2023-05-09T21:10:20.223Z,18.73
2023-05-09T21:13:26.455Z,15.07
2023-05-09T21:16:31.814Z,18.13
2023-05-09T21:19:40.076Z,21.33
2023-05-09T21:22:45.405Z,21.13
2023-05-09T21:25:50.959Z,16.33
2023-05-09T21:28:56.439Z,18.88
2023-05-09T21:32:02.059Z,23.90
2023-05-09T21:35:13.127Z,20.55
2023-05-09T21:38:18.562Z,27.35
2023-05-09T21:41:24.240Z,28.60
2023-05-09T21:44:29.789Z,22.58
2023-05-09T21:47:35.265Z,24.77
2023-05-09T21:50:43.392Z,22.17
2023-05-09T21:53:48.907Z,22.02
2023-05-09T21:56:54.580Z,22.35
2023-05-09T22:00:01.678Z,20.70
2023-05-09T22:03:11.842Z,18.35
2023-05-09T22:06:19.786Z,19.23
2023-05-09T22:09:25.306Z,23.50
2023-05-09T22:12:30.923Z,19.35
2023-05-09T22:15:36.375Z,23.23
2023-05-09T22:18:41.831Z,18.95
2023-05-09T22:21:49.852Z,24.98
2023-05-09T22:24:55.508Z,27.63
2023-05-09T22:28:01.081Z,23.13
2023-05-09T22:31:08.517Z,22.35
2023-05-09T22:34:13.950Z,17.90
2023-05-09T22:37:22.788Z,24.52
2023-05-09T22:40:27.995Z,19.52
2023-05-09T22:43:38.849Z,22.95
2023-05-09T22:46:45.647Z,23.20
2023-05-09T22:49:52.237Z,30.88
2023-05-09T22:53:00.148Z,27.05
2023-05-09T22:56:05.756Z,20.08
2023-05-09T22:59:11.435Z,27.33
2023-05-09T23:02:16.653Z,31.60
2023-05-09T23:05:22.499Z,27.67
2023-05-09T23:08:30.553Z,31.30
2023-05-09T23:11:36.103Z,24.67
2023-05-09T23:14:41.456Z,31.85
2023-05-09T23:17:47.075Z,26.75
2023-05-09T23:20:52.640Z,31.30
2023-05-09T23:24:00.882Z,24.58
2023-05-09T23:27:06.588Z,29.65
2023-05-09T23:30:12.676Z,30.27
2023-05-09T23:33:18.377Z,21.25
2023-05-09T23:36:23.870Z,24.75
2023-05-09T23:39:31.878Z,22.30
2023-05-09T23:42:37.484Z,17.48
2023-05-09T23:45:42.913Z,20.63
2023-05-09T23:48:48.767Z,19.77
2023-05-09T23:51:54.823Z,18.45
2023-05-09T23:55:02.767Z,21.23
2023-05-09T23:58:09.324Z,18.08
